createdAt,value
2019-02-07T00:02:58.190Z,14.83
2019-02-07T00:06:04.083Z,21.20
2019-02-07T00:09:11.100Z,26.47
2019-02-07T00:12:16.959Z,16.67
2019-02-07T00:15:22.901Z,16.17
2019-02-07T00:18:28.755Z,12.13
2019-02-07T00:21:34.770Z,11.50
2019-02-07T00:24:43.052Z,15.00
2019-02-07T00:27:48.103Z,19.93
2019-02-07T00:30:53.915Z,15.27
2019-02-07T00:33:59.689Z,12.20
2019-02-07T00:37:05.456Z,13.00
2019-02-07T00:40:14.122Z,12.70
2019-02-07T00:43:20.451Z,12.63
2019-02-07T00:46:26.221Z,14.17
2019-02-07T00:49:31.993Z,15.50
2019-02-07T00:52:37.890Z,15.07
2019-02-07T00:55:43.642Z,14.47
2019-02-07T00:58:49.440Z,11.97
2019-02-07T01:01:55.409Z,9.07
2019-02-07T01:05:01.269Z,9.17
2019-02-07T01:08:07.352Z,7.10
2019-02-07T01:11:13.204Z,8.23
2019-02-07T01:14:19.467Z,7.40
2019-02-07T01:17:25.221Z,7.60
2019-02-07T01:20:31.106Z,7.97
2019-02-07T01:23:37.040Z,8.40
2019-02-07T01:26:42.988Z,8.83
2019-02-07T01:29:48.753Z,9.43
2019-02-07T01:32:54.717Z,10.03
2019-02-07T01:36:00.487Z,9.63
2019-02-07T01:39:09.168Z,10.30
2019-02-07T01:42:15.049Z,10.80
2019-02-07T01:45:21.944Z,10.87
2019-02-07T01:48:27.854Z,11.50
2019-02-07T01:51:33.612Z,11.37
2019-02-07T01:54:39.373Z,12.33
2019-02-07T01:57:45.294Z,11.83
2019-02-07T02:00:51.380Z,12.63
2019-02-07T02:03:57.402Z,11.53
2019-02-07T02:07:03.159Z,12.57
2019-02-07T02:10:12.334Z,12.63
2019-02-07T02:13:18.093Z,9.93
2019-02-07T02:16:24.444Z,11.70
2019-02-07T02:19:30.356Z,10.87
2019-02-07T02:22:36.331Z,9.40
2019-02-07T02:25:42.167Z,9.53
2019-02-07T02:28:48.018Z,9.80
2019-02-07T02:31:53.755Z,9.60
2019-02-07T02:34:59.656Z,8.47
2019-02-07T02:38:06.518Z,8.50
2019-02-07T02:41:12.293Z,7.43
2019-02-07T02:44:18.155Z,6.67
2019-02-07T02:47:23.888Z,6.07
2019-02-07T02:50:29.833Z,5.90
2019-02-07T02:53:35.665Z,6.93
2019-02-07T02:56:41.903Z,7.20
2019-02-07T02:59:47.803Z,7.53
2019-02-07T03:03:31.012Z,6.57
2019-02-07T03:06:55.711Z,6.50
2019-02-07T03:10:19.088Z,6.23
2019-02-07T03:13:53.196Z,6.57
2019-02-07T03:17:15.122Z,5.90
2019-02-07T03:20:38.680Z,5.93
2019-02-07T03:24:10.053Z,5.43
2019-02-07T03:27:40.723Z,5.07
2019-02-07T03:31:14.597Z,5.17
2019-02-07T03:34:42.203Z,5.90
2019-02-07T03:37:56.133Z,5.60
2019-02-07T03:41:20.790Z,5.53
2019-02-07T03:44:54.720Z,5.70
2019-02-07T03:48:22.294Z,4.80
2019-02-07T03:51:55.992Z,4.93
2019-02-07T03:55:17.344Z,11.27
2019-02-07T03:58:40.674Z,13.57
2019-02-07T04:02:05.389Z,14.83
2019-02-07T04:05:29.719Z,16.87
2019-02-07T04:08:54.408Z,12.20
2019-02-07T04:12:19.038Z,9.40
2019-02-07T04:15:52.507Z,6.40
2019-02-07T04:19:20.084Z,5.73
2019-02-07T04:22:47.686Z,6.87
2019-02-07T04:26:15.135Z,6.47
2019-02-07T04:29:46.068Z,6.70
2019-02-07T04:33:10.756Z,7.43
2019-02-07T04:36:38.171Z,5.87
2019-02-07T04:40:05.850Z,5.90
2019-02-07T04:43:36.531Z,6.40
2019-02-07T04:47:13.299Z,5.43
2019-02-07T04:50:37.976Z,5.67
2019-02-07T04:54:08.809Z,6.40
2019-02-07T04:57:25.280Z,7.63
2019-02-07T05:00:43.109Z,7.33
2019-02-07T05:04:10.843Z,6.73
2019-02-07T05:07:34.261Z,5.90
2019-02-07T05:10:58.128Z,6.60
2019-02-07T05:14:25.674Z,6.30
2019-02-07T05:17:43.757Z,7.17
2019-02-07T05:21:26.487Z,7.43
2019-02-07T05:25:06.153Z,6.83
2019-02-07T05:28:29.671Z,6.67
2019-02-07T05:32:13.111Z,7.27
2019-02-07T05:35:49.836Z,6.70
2019-02-07T05:39:13.481Z,6.63
2019-02-07T05:42:44.097Z,7.10
2019-02-07T05:46:00.540Z,7.10
2019-02-07T05:49:26.353Z,7.80
2019-02-07T05:52:52.670Z,7.30
2019-02-07T05:56:16.078Z,7.60
2019-02-07T05:59:56.122Z,7.60
2019-02-07T06:03:20.696Z,7.27
2019-02-07T06:06:53.733Z,7.33
2019-02-07T06:10:16.944Z,8.23
2019-02-07T06:13:50.639Z,7.47
2019-02-07T06:17:16.115Z,8.30
2019-02-07T06:20:44.514Z,7.00
2019-02-07T06:24:12.281Z,7.60
2019-02-07T06:27:31.556Z,7.23
2019-02-07T06:30:56.170Z,7.33
2019-02-07T06:34:32.944Z,5.83
2019-02-07T06:38:03.466Z,6.63
2019-02-07T06:41:26.549Z,8.50
2019-02-07T06:44:56.699Z,7.80
2019-02-07T06:48:21.310Z,7.73
2019-02-07T06:51:40.486Z,7.83
2019-02-07T06:55:03.875Z,7.47
2019-02-07T06:58:43.497Z,7.47
2019-02-07T07:02:12.343Z,8.57
2019-02-07T07:05:30.927Z,7.23
2019-02-07T07:08:58.391Z,8.93
2019-02-07T07:12:29.301Z,8.80
2019-02-07T07:16:03.104Z,8.20
2019-02-07T07:19:36.887Z,7.90
2019-02-07T07:23:00.254Z,7.47
2019-02-07T07:26:24.075Z,11.37
2019-02-07T07:29:43.067Z,9.37
2019-02-07T07:33:01.622Z,9.50
2019-02-07T07:36:26.308Z,8.87
2019-02-07T07:39:54.063Z,8.47
2019-02-07T07:43:17.470Z,8.80
2019-02-07T07:46:47.866Z,8.40
2019-02-07T07:50:21.756Z,8.63
2019-02-07T07:53:49.155Z,7.33
2019-02-07T07:57:13.772Z,7.90
2019-02-07T08:00:42.273Z,8.70
2019-02-07T08:04:16.063Z,7.90
2019-02-07T08:07:50.561Z,7.70
2019-02-07T08:11:27.389Z,8.27
2019-02-07T08:14:50.913Z,8.27
2019-02-07T08:18:34.443Z,16.20
2019-02-07T08:22:05.393Z,9.10
2019-02-07T08:25:30.264Z,13.23
2019-02-07T08:28:59.284Z,10.23
2019-02-07T08:32:23.662Z,11.47
2019-02-07T08:35:48.432Z,10.20
2019-02-07T08:39:19.216Z,10.37
2019-02-07T08:42:43.193Z,10.37
2019-02-07T08:46:06.758Z,11.60
2019-02-07T08:49:34.228Z,10.67
2019-02-07T08:53:17.259Z,11.37
2019-02-07T08:56:48.102Z,11.83
2019-02-07T09:00:11.481Z,10.10
2019-02-07T09:03:36.299Z,13.27
2019-02-07T09:07:07.268Z,9.97
2019-02-07T09:10:40.407Z,11.93
2019-02-07T09:13:54.482Z,12.00
2019-02-07T09:17:19.154Z,11.33
2019-02-07T09:20:49.552Z,12.20
2019-02-07T09:24:17.639Z,11.87
2019-02-07T09:27:53.970Z,8.47
2019-02-07T09:31:18.677Z,11.50
2019-02-07T09:34:54.323Z,13.87
2019-02-07T09:38:28.164Z,9.37
2019-02-07T09:41:50.379Z,7.07
2019-02-07T09:45:14.851Z,7.47
2019-02-07T09:48:39.459Z,8.07
2019-02-07T09:52:02.238Z,12.70
2019-02-07T09:55:26.913Z,10.03
2019-02-07T09:58:50.464Z,16.60
2019-02-07T10:02:13.852Z,11.73
2019-02-07T10:05:27.962Z,9.20
2019-02-07T10:08:59.553Z,9.27
2019-02-07T10:12:39.908Z,10.23
2019-02-07T10:16:02.516Z,11.07
2019-02-07T10:19:36.731Z,9.60
2019-02-07T10:23:01.427Z,16.03
2019-02-07T10:26:25.034Z,12.23
2019-02-07T10:30:07.624Z,14.97
2019-02-07T10:33:47.648Z,13.23
2019-02-07T10:37:15.556Z,16.83
2019-02-07T10:40:46.082Z,11.80
2019-02-07T10:44:14.896Z,9.87
2019-02-07T10:47:39.483Z,11.67
2019-02-07T10:51:11.067Z,12.77
2019-02-07T10:54:39.045Z,11.30
2019-02-07T10:58:15.694Z,8.93
2019-02-07T11:01:55.461Z,9.50
2019-02-07T11:05:19.032Z,7.77
2019-02-07T11:08:49.712Z,10.80
2019-02-07T11:12:20.812Z,8.57
2019-02-07T11:15:58.765Z,10.73
2019-02-07T11:19:21.701Z,10.80
2019-02-07T11:22:44.805Z,8.27
2019-02-07T11:26:21.347Z,13.83
2019-02-07T11:29:42.575Z,12.43
2019-02-07T11:32:59.621Z,13.27
2019-02-07T11:36:41.992Z,9.87
2019-02-07T11:40:07.899Z,9.73
2019-02-07T11:43:33.980Z,10.53
2019-02-07T11:47:04.968Z,10.83
2019-02-07T11:50:11.407Z,10.70
2019-02-07T11:53:36.022Z,11.13
2019-02-07T11:56:56.791Z,12.57
2019-02-07T12:00:20.077Z,35.90
2019-02-07T12:03:43.328Z,15.77
2019-02-07T12:07:08.640Z,9.73
2019-02-07T12:10:34.927Z,9.50
2019-02-07T12:14:05.563Z,10.97
2019-02-07T12:17:29.402Z,11.03
2019-02-07T12:20:52.633Z,16.27
2019-02-07T12:24:16.212Z,15.17
2019-02-07T12:27:53.239Z,11.33
2019-02-07T12:31:20.696Z,10.03
2019-02-07T12:34:48.522Z,10.23
2019-02-07T12:38:28.549Z,11.57
2019-02-07T12:41:53.152Z,10.77
2019-02-07T12:45:23.858Z,11.60
2019-02-07T12:48:47.355Z,11.50
2019-02-07T12:52:13.256Z,10.67
2019-02-07T12:55:51.910Z,11.30
2019-02-07T12:59:09.746Z,11.60
2019-02-07T13:02:43.579Z,11.40
2019-02-07T13:06:07.043Z,11.60
2019-02-07T13:09:31.945Z,13.57
2019-02-07T13:12:59.349Z,11.67
2019-02-07T13:16:30.081Z,13.73
2019-02-07T13:20:05.802Z,13.17
2019-02-07T13:23:36.818Z,15.27
2019-02-07T13:27:13.532Z,15.03
2019-02-07T13:30:32.711Z,16.27
2019-02-07T13:34:00.391Z,21.27
2019-02-07T13:37:28.298Z,23.30
2019-02-07T13:41:06.890Z,34.37
2019-02-07T13:44:46.755Z,34.90
2019-02-07T13:48:09.604Z,27.63
2019-02-07T13:51:37.116Z,32.40
2019-02-07T13:55:04.787Z,29.93
2019-02-07T13:58:28.205Z,25.63
2019-02-07T14:01:52.811Z,20.20
2019-02-07T14:05:23.184Z,20.33
2019-02-07T14:08:47.813Z,17.03
2019-02-07T14:12:11.450Z,19.10
2019-02-07T14:15:45.292Z,20.13
2019-02-07T14:19:08.891Z,21.77
2019-02-07T14:22:39.723Z,16.70
2019-02-07T14:26:10.317Z,27.00
2019-02-07T14:29:33.590Z,20.13
2019-02-07T14:32:56.921Z,18.27
2019-02-07T14:36:21.654Z,20.77
2019-02-07T14:39:46.248Z,24.00
2019-02-07T14:43:01.693Z,41.20
2019-02-07T14:46:29.281Z,45.77
2019-02-07T14:49:35.095Z,26.20
2019-02-07T14:52:40.867Z,34.57
2019-02-07T14:55:46.764Z,29.67
2019-02-07T14:58:52.750Z,19.83
2019-02-07T15:01:58.739Z,22.93
2019-02-07T15:05:05.537Z,19.73
2019-02-07T15:08:12.435Z,19.67
2019-02-07T15:11:18.300Z,31.00
2019-02-07T15:14:26.578Z,31.90
2019-02-07T15:17:33.422Z,37.10
2019-02-07T15:20:39.297Z,18.17
2019-02-07T15:23:45.055Z,16.60
2019-02-07T15:26:50.802Z,19.47
2019-02-07T15:29:56.566Z,21.93
2019-02-07T15:33:02.372Z,18.43
2019-02-07T15:36:09.611Z,15.93
2019-02-07T15:39:17.477Z,21.27
2019-02-07T15:42:23.422Z,14.73
2019-02-07T15:45:29.927Z,16.03
2019-02-07T15:48:35.872Z,19.07
2019-02-07T15:51:41.778Z,21.07
2019-02-07T15:54:47.668Z,27.03
2019-02-07T15:57:53.695Z,27.00
2019-02-07T16:01:08.396Z,14.07
2019-02-07T16:04:19.906Z,27.03
2019-02-07T16:07:25.692Z,41.77
2019-02-07T16:10:31.453Z,35.57
2019-02-07T16:13:37.362Z,17.03
2019-02-07T16:16:43.356Z,16.10
2019-02-07T16:19:49.193Z,17.97
2019-02-07T16:22:55.084Z,15.00
2019-02-07T16:26:00.960Z,14.87
2019-02-07T16:29:08.407Z,15.23
2019-02-07T16:32:14.367Z,17.70
2019-02-07T16:35:21.222Z,19.07
2019-02-07T16:38:27.056Z,26.13
2019-02-07T16:41:32.923Z,21.47
2019-02-07T16:44:38.692Z,22.80
2019-02-07T16:47:45.562Z,27.33
2019-02-07T16:50:59.963Z,19.90
2019-02-07T16:53:58.925Z,19.27
2019-02-07T16:57:05.800Z,13.77
2019-02-07T17:00:17.500Z,14.10
2019-02-07T17:03:25.534Z,14.87
2019-02-07T17:06:31.286Z,14.40
2019-02-07T17:09:41.232Z,13.93
2019-02-07T17:12:47.260Z,19.00
2019-02-07T17:15:53.011Z,19.60
2019-02-07T17:18:58.785Z,18.20
2019-02-07T17:22:04.851Z,16.53
2019-02-07T17:25:11.071Z,18.03
2019-02-07T17:28:17.826Z,25.27
2019-02-07T17:31:23.583Z,25.33
2019-02-07T17:34:29.441Z,24.27
2019-02-07T17:37:35.247Z,26.00
2019-02-07T17:40:41.096Z,33.33
2019-02-07T17:43:47.247Z,18.50
2019-02-07T17:46:53.019Z,16.70
2019-02-07T17:49:58.878Z,20.07
2019-02-07T17:53:06.496Z,22.33
2019-02-07T17:56:12.294Z,18.50
2019-02-07T17:59:18.047Z,18.20
2019-02-07T18:02:23.960Z,18.07
2019-02-07T18:05:29.937Z,18.77
2019-02-07T18:08:35.818Z,19.03
2019-02-07T18:11:41.665Z,20.30
2019-02-07T18:14:47.569Z,16.50
2019-02-07T18:17:53.325Z,26.93
2019-02-07T18:20:59.095Z,22.23
2019-02-07T18:24:05.349Z,16.53
2019-02-07T18:27:11.153Z,18.70
2019-02-07T18:30:18.762Z,24.10
2019-02-07T18:33:24.530Z,20.80
2019-02-07T18:36:30.276Z,18.50
2019-02-07T18:39:36.092Z,19.83
2019-02-07T18:42:41.851Z,20.47
2019-02-07T18:45:47.633Z,24.80
2019-02-07T18:48:53.354Z,19.50
2019-02-07T18:51:59.115Z,21.67
2019-02-07T18:55:05.722Z,18.70
2019-02-07T18:58:11.497Z,20.73
2019-02-07T19:01:17.261Z,22.30
2019-02-07T19:04:23.418Z,22.40
2019-02-07T19:07:29.203Z,23.40
2019-02-07T19:10:35.103Z,22.80
2019-02-07T19:13:40.897Z,30.77
2019-02-07T19:16:46.719Z,18.87
2019-02-07T19:19:52.486Z,13.60
2019-02-07T19:22:58.344Z,14.00
2019-02-07T19:26:04.229Z,21.23
2019-02-07T19:29:10.104Z,19.53
2019-02-07T19:32:15.981Z,14.73
2019-02-07T19:35:21.878Z,16.03
2019-02-07T19:38:27.731Z,15.80
2019-02-07T19:41:33.497Z,14.33
2019-02-07T19:44:39.584Z,15.60
2019-02-07T19:47:45.601Z,13.10
2019-02-07T19:50:52.382Z,16.30
2019-02-07T19:53:58.592Z,12.20
2019-02-07T19:57:04.780Z,13.13
2019-02-07T20:00:20.047Z,9.13
2019-02-07T20:03:26.010Z,12.50
2019-02-07T20:06:31.901Z,9.83
2019-02-07T20:09:37.834Z,10.90
2019-02-07T20:12:44.043Z,15.70
2019-02-07T20:15:50.305Z,10.60
2019-02-07T20:18:56.191Z,10.30
2019-02-07T20:22:02.159Z,10.23
2019-02-07T20:25:10.501Z,11.20
2019-02-07T20:28:16.354Z,12.47
2019-02-07T20:31:22.285Z,10.83
2019-02-07T20:34:28.139Z,12.27
2019-02-07T20:37:33.934Z,14.37
2019-02-07T20:40:39.801Z,12.30
2019-02-07T20:43:45.675Z,13.20
2019-02-07T20:46:51.431Z,12.47
2019-02-07T20:49:57.178Z,12.70
2019-02-07T20:53:02.945Z,10.33
2019-02-07T20:56:08.699Z,13.30
2019-02-07T20:59:14.539Z,13.87
2019-02-07T21:02:20.482Z,10.17
2019-02-07T21:05:27.482Z,9.53
2019-02-07T21:08:33.256Z,10.47
2019-02-07T21:11:39.112Z,13.37
2019-02-07T21:14:44.879Z,11.50
2019-02-07T21:17:51.716Z,11.93
2019-02-07T21:20:57.503Z,9.80
2019-02-07T21:24:03.278Z,9.17
2019-02-07T21:27:09.050Z,9.43
2019-02-07T21:30:20.893Z,9.67
2019-02-07T21:33:26.970Z,9.73
2019-02-07T21:36:32.725Z,9.67
2019-02-07T21:39:39.571Z,10.17
2019-02-07T21:42:45.453Z,12.10
2019-02-07T21:45:51.242Z,10.70
2019-02-07T21:48:57.014Z,11.57
2019-02-07T21:52:03.882Z,9.90
2019-02-07T21:55:10.747Z,9.87
2019-02-07T21:58:16.741Z,11.20
2019-02-07T22:01:22.621Z,10.70
2019-02-07T22:04:28.479Z,11.07
2019-02-07T22:07:34.334Z,10.67
2019-02-07T22:10:40.192Z,10.70
2019-02-07T22:13:46.322Z,11.30
2019-02-07T22:16:52.139Z,12.37
2019-02-07T22:19:57.911Z,12.70
2019-02-07T22:23:03.962Z,10.27
2019-02-07T22:26:09.996Z,9.63
2019-02-07T22:29:15.852Z,9.63
2019-02-07T22:32:21.646Z,11.87
2019-02-07T22:35:27.499Z,9.30
2019-02-07T22:38:34.399Z,13.17
2019-02-07T22:41:40.294Z,10.30
2019-02-07T22:44:46.038Z,6.47
2019-02-07T22:47:51.804Z,8.63
2019-02-07T22:50:57.603Z,8.97
2019-02-07T22:54:03.556Z,9.00
2019-02-07T22:57:09.332Z,8.57
2019-02-07T23:01:10.373Z,10.07
2019-02-07T23:04:18.063Z,9.30
2019-02-07T23:07:23.929Z,8.27
2019-02-07T23:10:29.940Z,9.37
2019-02-07T23:13:37.912Z,10.00
2019-02-07T23:16:43.886Z,9.47
2019-02-07T23:19:49.795Z,10.30
2019-02-07T23:22:55.578Z,10.03
2019-02-07T23:26:01.434Z,9.50
2019-02-07T23:29:07.763Z,10.67
2019-02-07T23:32:13.632Z,8.10
2019-02-07T23:35:19.558Z,10.47
2019-02-07T23:38:25.348Z,11.17
2019-02-07T23:41:31.181Z,10.57
2019-02-07T23:44:36.930Z,10.97
2019-02-07T23:47:42.905Z,9.93
2019-02-07T23:50:48.699Z,10.73
2019-02-07T23:53:54.499Z,10.27
2019-02-07T23:57:00.390Z,10.10
